SYD weather

Sydney Kingsford Smith International Airport
Sydney, New South Wales, Australia

Public forecast

Using degrees Celsius for public forecast. Weather courtesy of forecast.io.

METAR (pilot weather report)

Retrieved 2018/06/18 04:34 UTC (25 minutes ago):

YSSY 180434Z 21022G35KT 9999 -SHRA FEW020 SCT030 BKN050 15/08 Q1016 INTER 0630/0734 5000 SHRA SCT015 FM0434 MOD TURB BLW 5000FT

TAF (pilot weather forecast)

Forecast is more than 12 hours old.

Retrieved 2018/06/17 00:00 UTC (1 day ago):

TAF YSSY 172305Z 1800/1906 21022G35KT 9999 -SHRA SCT025 SCT045 FM181600 21018G30KT 9999 -SHRA SCT020 SCT045 INTER 1800/1803 5000 SHRA SCT015 TEMPO 1816/1824 4000 SHRA BKN010 INTER 1900/1906 4000 SHRA BKN010